sensor_id;sensor_type;location;lat;lon;timestamp;temperature;humidity
71297;SHT31;59082;50.658;4.608;2022-08-19T00:01:52;17.80;98.40
71297;SHT31;59082;50.658;4.608;2022-08-19T00:04:24;17.80;98.31
71297;SHT31;59082;50.658;4.608;2022-08-19T00:06:50;17.83;98.36
71297;SHT31;59082;50.658;4.608;2022-08-19T00:09:18;17.78;98.41
71297;SHT31;59082;50.658;4.608;2022-08-19T00:11:44;17.76;98.45
71297;SHT31;59082;50.658;4.608;2022-08-19T00:14:12;17.69;98.49
71297;SHT31;59082;50.658;4.608;2022-08-19T00:16:39;17.63;98.53
71297;SHT31;59082;50.658;4.608;2022-08-19T00:19:06;17.65;98.41
71297;SHT31;59082;50.658;4.608;2022-08-19T00:21:32;17.56;98.44
71297;SHT31;59082;50.658;4.608;2022-08-19T00:23:58;17.55;98.63
71297;SHT31;59082;50.658;4.608;2022-08-19T00:26:25;17.49;98.78
71297;SHT31;59082;50.658;4.608;2022-08-19T00:28:50;17.49;99.06
71297;SHT31;59082;50.658;4.608;2022-08-19T00:31:16;17.52;98.98
71297;SHT31;59082;50.658;4.608;2022-08-19T00:33:42;17.56;98.97
71297;SHT31;59082;50.658;4.608;2022-08-19T00:36:08;17.56;99.01
71297;SHT31;59082;50.658;4.608;2022-08-19T00:38:35;17.65;98.80
71297;SHT31;59082;50.658;4.608;2022-08-19T00:41:01;17.68;98.49
71297;SHT31;59082;50.658;4.608;2022-08-19T00:43:27;17.68;98.37
71297;SHT31;59082;50.658;4.608;2022-08-19T00:45:53;17.71;98.25
71297;SHT31;59082;50.658;4.608;2022-08-19T00:48:20;17.61;98.23
71297;SHT31;59082;50.658;4.608;2022-08-19T00:50:47;17.56;98.32
71297;SHT31;59082;50.658;4.608;2022-08-19T00:53:16;17.55;98.35
71297;SHT31;59082;50.658;4.608;2022-08-19T00:55:48;17.53;98.39
71297;SHT31;59082;50.658;4.608;2022-08-19T00:58:17;17.45;98.35
71297;SHT31;59082;50.658;4.608;2022-08-19T01:00:44;17.41;98.76
71297;SHT31;59082;50.658;4.608;2022-08-19T01:03:11;17.36;98.72
71297;SHT31;59082;50.658;4.608;2022-08-19T01:05:39;17.30;98.68
71297;SHT31;59082;50.658;4.608;2022-08-19T01:08:06;17.31;98.69
71297;SHT31;59082;50.658;4.608;2022-08-19T01:10:37;17.27;98.58
71297;SHT31;59082;50.658;4.608;2022-08-19T01:13:04;17.25;98.82
71297;SHT31;59082;50.658;4.608;2022-08-19T01:15:33;17.23;98.99
71297;SHT31;59082;50.658;4.608;2022-08-19T01:18:06;17.18;99.08
71297;SHT31;59082;50.658;4.608;2022-08-19T01:20:33;17.18;99.13
71297;SHT31;59082;50.658;4.608;2022-08-19T01:23:00;17.18;99.19
71297;SHT31;59082;50.658;4.608;2022-08-19T01:25:32;17.13;99.28
71297;SHT31;59082;50.658;4.608;2022-08-19T01:27:58;17.14;99.33
71297;SHT31;59082;50.658;4.608;2022-08-19T01:30:28;17.11;99.35
71297;SHT31;59082;50.658;4.608;2022-08-19T01:32:54;17.08;99.42
71297;SHT31;59082;50.658;4.608;2022-08-19T01:35:22;17.03;99.63
71297;SHT31;59082;50.658;4.608;2022-08-19T01:38:00;17.00;99.63
71297;SHT31;59082;50.658;4.608;2022-08-19T01:40:30;16.97;99.76
71297;SHT31;59082;50.658;4.608;2022-08-19T01:42:56;17.00;99.71
71297;SHT31;59082;50.658;4.608;2022-08-19T01:45:24;16.99;99.81
71297;SHT31;59082;50.658;4.608;2022-08-19T01:47:50;16.96;99.74
71297;SHT31;59082;50.658;4.608;2022-08-19T01:50:16;16.87;99.88
71297;SHT31;59082;50.658;4.608;2022-08-19T01:52:43;16.77;99.97
71297;SHT31;59082;50.658;4.608;2022-08-19T01:55:12;16.72;99.99
71297;SHT31;59082;50.658;4.608;2022-08-19T01:57:39;16.75;99.99
71297;SHT31;59082;50.658;4.608;2022-08-19T02:00:09;16.67;99.99
71297;SHT31;59082;50.658;4.608;2022-08-19T02:02:35;16.62;99.99
71297;SHT31;59082;50.658;4.608;2022-08-19T02:05:01;16.60;99.99
71297;SHT31;59082;50.658;4.608;2022-08-19T02:07:26;16.58;99.99
71297;SHT31;59082;50.658;4.608;2022-08-19T02:09:53;16.45;99.99
71297;SHT31;59082;50.658;4.608;2022-08-19T02:12:20;16.44;99.99
71297;SHT31;59082;50.658;4.608;2022-08-19T02:14:46;16.45;99.99
71297;SHT31;59082;50.658;4.608;2022-08-19T02:17:11;16.51;99.99
71297;SHT31;59082;50.658;4.608;2022-08-19T02:19:37;16.44;99.99
71297;SHT31;59082;50.658;4.608;2022-08-19T02:22:02;16.42;99.99
71297;SHT31;59082;50.658;4.608;2022-08-19T02:24:28;16.39;99.99
71297;SHT31;59082;50.658;4.608;2022-08-19T02:26:54;16.42;99.99
71297;SHT31;59082;50.658;4.608;2022-08-19T02:29:19;16.39;99.99
71297;SHT31;59082;50.658;4.608;2022-08-19T02:31:45;16.36;99.99
71297;SHT31;59082;50.658;4.608;2022-08-19T02:34:10;16.33;99.99
71297;SHT31;59082;50.658;4.608;2022-08-19T02:36:36;16.33;99.99
71297;SHT31;59082;50.658;4.608;2022-08-19T02:39:03;16.28;99.99
71297;SHT31;59082;50.658;4.608;2022-08-19T02:41:31;16.24;99.99
71297;SHT31;59082;50.658;4.608;2022-08-19T02:44:00;16.25;99.99
71297;SHT31;59082;50.658;4.608;2022-08-19T02:46:31;16.25;99.99
71297;SHT31;59082;50.658;4.608;2022-08-19T02:49:01;16.28;99.99
71297;SHT31;59082;50.658;4.608;2022-08-19T02:51:31;16.29;99.99
71297;SHT31;59082;50.658;4.608;2022-08-19T02:53:57;16.35;99.99
71297;SHT31;59082;50.658;4.608;2022-08-19T02:56:24;16.44;99.99
71297;SHT31;59082;50.658;4.608;2022-08-19T02:58:50;16.51;99.99
71297;SHT31;59082;50.658;4.608;2022-08-19T03:01:27;16.55;99.99
71297;SHT31;59082;50.658;4.608;2022-08-19T03:03:55;16.48;99.99
71297;SHT31;59082;50.658;4.608;2022-08-19T03:06:21;16.38;99.99
71297;SHT31;59082;50.658;4.608;2022-08-19T03:08:47;16.31;99.99
71297;SHT31;59082;50.658;4.608;2022-08-19T03:11:20;16.25;99.99
71297;SHT31;59082;50.658;4.608;2022-08-19T03:13:45;16.24;99.99
71297;SHT31;59082;50.658;4.608;2022-08-19T03:16:12;16.17;99.99
71297;SHT31;59082;50.658;4.608;2022-08-19T03:18:38;16.17;99.99
71297;SHT31;59082;50.658;4.608;2022-08-19T03:21:04;16.14;99.99
71297;SHT31;59082;50.658;4.608;2022-08-19T03:23:30;16.08;99.99
71297;SHT31;59082;50.658;4.608;2022-08-19T03:25:55;16.01;99.99
71297;SHT31;59082;50.658;4.608;2022-08-19T03:28:21;15.97;99.99
71297;SHT31;59082;50.658;4.608;2022-08-19T03:31:08;15.91;99.99
71297;SHT31;59082;50.658;4.608;2022-08-19T03:33:35;15.86;99.99
71297;SHT31;59082;50.658;4.608;2022-08-19T03:38:29;15.84;99.99
71297;SHT31;59082;50.658;4.608;2022-08-19T03:40:54;15.80;99.99
71297;SHT31;59082;50.658;4.608;2022-08-19T03:43:20;15.74;99.99
71297;SHT31;59082;50.658;4.608;2022-08-19T03:45:46;15.64;99.99
71297;SHT31;59082;50.658;4.608;2022-08-19T03:48:14;15.60;99.99
71297;SHT31;59082;50.658;4.608;2022-08-19T03:50:41;15.54;99.99
71297;SHT31;59082;50.658;4.608;2022-08-19T03:53:07;15.50;99.99
71297;SHT31;59082;50.658;4.608;2022-08-19T03:55:39;15.49;99.99
71297;SHT31;59082;50.658;4.608;2022-08-19T03:58:04;15.50;99.99
71297;SHT31;59082;50.658;4.608;2022-08-19T04:00:31;15.47;99.99
71297;SHT31;59082;50.658;4.608;2022-08-19T04:02:57;15.43;99.99
71297;SHT31;59082;50.658;4.608;2022-08-19T04:05:23;15.43;99.99
71297;SHT31;59082;50.658;4.608;2022-08-19T04:07:48;15.38;99.99
71297;SHT31;59082;50.658;4.608;2022-08-19T04:10:14;15.35;99.99
71297;SHT31;59082;50.658;4.608;2022-08-19T04:12:39;15.33;99.99
71297;SHT31;59082;50.658;4.608;2022-08-19T04:15:05;15.28;99.99
71297;SHT31;59082;50.658;4.608;2022-08-19T04:17:31;15.28;99.99
71297;SHT31;59082;50.658;4.608;2022-08-19T04:19:57;15.26;99.99
71297;SHT31;59082;50.658;4.608;2022-08-19T04:22:22;15.26;99.99
71297;SHT31;59082;50.658;4.608;2022-08-19T04:24:48;15.28;99.99
71297;SHT31;59082;50.658;4.608;2022-08-19T04:27:13;15.25;99.99
71297;SHT31;59082;50.658;4.608;2022-08-19T04:29:40;15.25;99.99
71297;SHT31;59082;50.658;4.608;2022-08-19T04:32:06;15.29;99.99
71297;SHT31;59082;50.658;4.608;2022-08-19T04:34:32;15.28;99.99
71297;SHT31;59082;50.658;4.608;2022-08-19T04:36:58;15.24;99.99
71297;SHT31;59082;50.658;4.608;2022-08-19T04:39:28;15.26;99.99
71297;SHT31;59082;50.658;4.608;2022-08-19T04:42:15;15.40;99.99
71297;SHT31;59082;50.658;4.608;2022-08-19T04:44:59;15.54;99.99
71297;SHT31;59082;50.658;4.608;2022-08-19T04:47:25;15.64;99.99
71297;SHT31;59082;50.658;4.608;2022-08-19T04:49:51;15.73;99.99
71297;SHT31;59082;50.658;4.608;2022-08-19T04:52:16;15.84;99.99
71297;SHT31;59082;50.658;4.608;2022-08-19T04:54:42;15.89;99.99
71297;SHT31;59082;50.658;4.608;2022-08-19T04:57:08;15.97;99.99
71297;SHT31;59082;50.658;4.608;2022-08-19T04:59:35;16.00;99.99
71297;SHT31;59082;50.658;4.608;2022-08-19T05:02:01;16.08;99.99
71297;SHT31;59082;50.658;4.608;2022-08-19T05:04:26;16.12;99.99
71297;SHT31;59082;50.658;4.608;2022-08-19T05:06:56;16.17;99.99
71297;SHT31;59082;50.658;4.608;2022-08-19T05:09:22;16.11;99.99
71297;SHT31;59082;50.658;4.608;2022-08-19T05:11:47;16.21;99.99
71297;SHT31;59082;50.658;4.608;2022-08-19T05:14:14;16.26;99.99
71297;SHT31;59082;50.658;4.608;2022-08-19T05:16:40;16.21;99.79
71297;SHT31;59082;50.658;4.608;2022-08-19T05:19:06;16.14;99.99
71297;SHT31;59082;50.658;4.608;2022-08-19T05:21:51;16.12;99.99
71297;SHT31;59082;50.658;4.608;2022-08-19T05:24:35;16.14;99.98
71297;SHT31;59082;50.658;4.608;2022-08-19T05:27:01;16.12;99.99
71297;SHT31;59082;50.658;4.608;2022-08-19T05:29:28;16.17;99.99
71297;SHT31;59082;50.658;4.608;2022-08-19T05:31:55;16.21;99.99
71297;SHT31;59082;50.658;4.608;2022-08-19T05:34:22;16.17;99.99
71297;SHT31;59082;50.658;4.608;2022-08-19T05:36:51;16.19;99.99
71297;SHT31;59082;50.658;4.608;2022-08-19T05:39:21;16.14;99.99
71297;SHT31;59082;50.658;4.608;2022-08-19T05:41:49;16.10;99.99
71297;SHT31;59082;50.658;4.608;2022-08-19T05:44:15;16.10;99.99
71297;SHT31;59082;50.658;4.608;2022-08-19T05:46:44;16.10;99.99
71297;SHT31;59082;50.658;4.608;2022-08-19T05:49:13;16.02;99.99
71297;SHT31;59082;50.658;4.608;2022-08-19T05:51:39;15.96;99.99
71297;SHT31;59082;50.658;4.608;2022-08-19T05:54:05;15.98;99.99
71297;SHT31;59082;50.658;4.608;2022-08-19T05:56:32;16.00;99.99
71297;SHT31;59082;50.658;4.608;2022-08-19T05:59:02;16.11;99.99
71297;SHT31;59082;50.658;4.608;2022-08-19T06:01:28;16.12;99.99
71297;SHT31;59082;50.658;4.608;2022-08-19T06:03:53;16.22;99.99
71297;SHT31;59082;50.658;4.608;2022-08-19T06:06:19;16.33;99.99
71297;SHT31;59082;50.658;4.608;2022-08-19T06:08:45;16.48;99.90
71297;SHT31;59082;50.658;4.608;2022-08-19T06:13:44;16.72;99.51
71297;SHT31;59082;50.658;4.608;2022-08-19T06:16:12;16.84;99.04
71297;SHT31;59082;50.658;4.608;2022-08-19T06:18:37;17.04;98.66
71297;SHT31;59082;50.658;4.608;2022-08-19T06:21:03;17.31;97.87
71297;SHT31;59082;50.658;4.608;2022-08-19T06:23:29;17.51;97.14
71297;SHT31;59082;50.658;4.608;2022-08-19T06:25:55;17.42;97.06
71297;SHT31;59082;50.658;4.608;2022-08-19T06:28:20;17.53;97.01
71297;SHT31;59082;50.658;4.608;2022-08-19T06:30:49;17.68;96.53
71297;SHT31;59082;50.658;4.608;2022-08-19T06:33:16;17.96;95.74
71297;SHT31;59082;50.658;4.608;2022-08-19T06:35:41;18.33;94.74
71297;SHT31;59082;50.658;4.608;2022-08-19T06:38:07;18.24;94.67
71297;SHT31;59082;50.658;4.608;2022-08-19T06:40:35;18.49;94.12
71297;SHT31;59082;50.658;4.608;2022-08-19T06:43:01;18.61;93.99
71297;SHT31;59082;50.658;4.608;2022-08-19T06:45:27;18.82;94.02
71297;SHT31;59082;50.658;4.608;2022-08-19T06:47:53;18.88;92.81
71297;SHT31;59082;50.658;4.608;2022-08-19T06:50:22;18.79;93.06
71297;SHT31;59082;50.658;4.608;2022-08-19T06:52:47;18.99;92.56
71297;SHT31;59082;50.658;4.608;2022-08-19T06:55:13;19.03;92.69
71297;SHT31;59082;50.658;4.608;2022-08-19T06:57:38;19.27;91.99
71297;SHT31;59082;50.658;4.608;2022-08-19T07:00:05;19.54;91.37
71297;SHT31;59082;50.658;4.608;2022-08-19T07:02:33;19.75;90.87
71297;SHT31;59082;50.658;4.608;2022-08-19T07:05:03;19.83;90.54
71297;SHT31;59082;50.658;4.608;2022-08-19T07:07:28;19.75;90.58
71297;SHT31;59082;50.658;4.608;2022-08-19T07:09:54;19.93;90.24
71297;SHT31;59082;50.658;4.608;2022-08-19T07:12:19;20.15;89.88
71297;SHT31;59082;50.658;4.608;2022-08-19T07:14:45;19.98;89.94
71297;SHT31;59082;50.658;4.608;2022-08-19T07:17:11;20.33;89.99
71297;SHT31;59082;50.658;4.608;2022-08-19T07:19:37;20.29;89.14
71297;SHT31;59082;50.658;4.608;2022-08-19T07:22:05;20.46;88.74
71297;SHT31;59082;50.658;4.608;2022-08-19T07:24:32;20.70;88.41
71297;SHT31;59082;50.658;4.608;2022-08-19T07:27:00;20.67;88.50
71297;SHT31;59082;50.658;4.608;2022-08-19T07:29:28;21.16;87.95
71297;SHT31;59082;50.658;4.608;2022-08-19T07:31:55;21.50;86.25
71297;SHT31;59082;50.658;4.608;2022-08-19T07:34:24;21.80;85.63
71297;SHT31;59082;50.658;4.608;2022-08-19T07:36:50;21.83;85.45
71297;SHT31;59082;50.658;4.608;2022-08-19T07:39:19;21.71;85.80
71297;SHT31;59082;50.658;4.608;2022-08-19T07:41:46;21.66;86.10
71297;SHT31;59082;50.658;4.608;2022-08-19T07:44:12;21.56;85.70
71297;SHT31;59082;50.658;4.608;2022-08-19T07:46:40;21.80;85.46
71297;SHT31;59082;50.658;4.608;2022-08-19T07:49:07;22.18;84.34
71297;SHT31;59082;50.658;4.608;2022-08-19T07:51:33;21.80;85.13
71297;SHT31;59082;50.658;4.608;2022-08-19T07:53:59;21.59;85.25
71297;SHT31;59082;50.658;4.608;2022-08-19T07:56:25;21.66;85.22
71297;SHT31;59082;50.658;4.608;2022-08-19T07:58:51;21.86;85.29
71297;SHT31;59082;50.658;4.608;2022-08-19T08:01:21;21.60;85.77
71297;SHT31;59082;50.658;4.608;2022-08-19T08:03:48;21.84;85.81
71297;SHT31;59082;50.658;4.608;2022-08-19T08:06:32;21.98;85.11
71297;SHT31;59082;50.658;4.608;2022-08-19T08:09:20;22.31;84.67
71297;SHT31;59082;50.658;4.608;2022-08-19T08:11:58;22.84;84.11
71297;SHT31;59082;50.658;4.608;2022-08-19T08:14:29;22.67;83.34
71297;SHT31;59082;50.658;4.608;2022-08-19T08:16:55;22.56;84.50
71297;SHT31;59082;50.658;4.608;2022-08-19T08:19:22;22.97;82.85
71297;SHT31;59082;50.658;4.608;2022-08-19T08:21:49;22.90;82.75
71297;SHT31;59082;50.658;4.608;2022-08-19T08:24:15;22.86;83.05
71297;SHT31;59082;50.658;4.608;2022-08-19T08:26:41;23.14;82.21
71297;SHT31;59082;50.658;4.608;2022-08-19T08:29:12;22.79;82.51
71297;SHT31;59082;50.658;4.608;2022-08-19T08:31:40;22.67;82.73
71297;SHT31;59082;50.658;4.608;2022-08-19T08:34:06;22.24;83.72
71297;SHT31;59082;50.658;4.608;2022-08-19T08:36:31;22.86;82.74
71297;SHT31;59082;50.658;4.608;2022-08-19T08:39:00;23.69;80.79
71297;SHT31;59082;50.658;4.608;2022-08-19T08:44:03;25.17;79.44
71297;SHT31;59082;50.658;4.608;2022-08-19T08:46:39;25.74;76.33
71297;SHT31;59082;50.658;4.608;2022-08-19T08:49:22;24.83;77.36
71297;SHT31;59082;50.658;4.608;2022-08-19T08:51:58;24.78;77.90
71297;SHT31;59082;50.658;4.608;2022-08-19T08:54:30;24.47;78.52
71297;SHT31;59082;50.658;4.608;2022-08-19T08:56:57;24.04;79.51
71297;SHT31;59082;50.658;4.608;2022-08-19T08:59:31;24.45;79.00
71297;SHT31;59082;50.658;4.608;2022-08-19T09:01:59;24.21;79.01
71297;SHT31;59082;50.658;4.608;2022-08-19T09:04:25;23.99;79.91
71297;SHT31;59082;50.658;4.608;2022-08-19T09:09:38;23.99;80.21
71297;SHT31;59082;50.658;4.608;2022-08-19T09:17:16;24.03;80.30
71297;SHT31;59082;50.658;4.608;2022-08-19T09:19:49;23.72;81.72
71297;SHT31;59082;50.658;4.608;2022-08-19T09:22:15;23.87;81.47
71297;SHT31;59082;50.658;4.608;2022-08-19T09:24:41;23.92;81.63
71297;SHT31;59082;50.658;4.608;2022-08-19T09:27:06;23.93;81.01
71297;SHT31;59082;50.658;4.608;2022-08-19T09:29:32;23.59;81.61
71297;SHT31;59082;50.658;4.608;2022-08-19T09:31:57;23.70;81.91
71297;SHT31;59082;50.658;4.608;2022-08-19T09:34:23;23.34;82.44
71297;SHT31;59082;50.658;4.608;2022-08-19T09:36:50;23.41;82.07
71297;SHT31;59082;50.658;4.608;2022-08-19T09:39:19;23.61;82.25
71297;SHT31;59082;50.658;4.608;2022-08-19T09:41:45;23.21;83.16
71297;SHT31;59082;50.658;4.608;2022-08-19T09:44:10;23.41;82.99
71297;SHT31;59082;50.658;4.608;2022-08-19T09:46:37;23.54;82.70
71297;SHT31;59082;50.658;4.608;2022-08-19T09:49:03;23.20;83.68
71297;SHT31;59082;50.658;4.608;2022-08-19T09:51:31;23.11;84.30
71297;SHT31;59082;50.658;4.608;2022-08-19T09:54:00;22.76;84.47
71297;SHT31;59082;50.658;4.608;2022-08-19T09:56:26;22.59;85.13
71297;SHT31;59082;50.658;4.608;2022-08-19T09:58:52;22.48;85.45
71297;SHT31;59082;50.658;4.608;2022-08-19T10:01:21;22.41;86.11
71297;SHT31;59082;50.658;4.608;2022-08-19T10:03:53;22.51;85.84
71297;SHT31;59082;50.658;4.608;2022-08-19T10:06:21;22.63;85.46
71297;SHT31;59082;50.658;4.608;2022-08-19T10:08:47;22.48;85.98
71297;SHT31;59082;50.658;4.608;2022-08-19T10:11:14;22.42;86.25
71297;SHT31;59082;50.658;4.608;2022-08-19T10:13:42;22.35;86.53
71297;SHT31;59082;50.658;4.608;2022-08-19T10:16:12;22.64;85.75
71297;SHT31;59082;50.658;4.608;2022-08-19T10:18:38;22.51;86.13
71297;SHT31;59082;50.658;4.608;2022-08-19T10:21:08;22.41;86.49
71297;SHT31;59082;50.658;4.608;2022-08-19T10:23:35;22.73;85.66
71297;SHT31;59082;50.658;4.608;2022-08-19T10:26:03;22.90;85.39
71297;SHT31;59082;50.658;4.608;2022-08-19T10:28:34;23.20;84.79
71297;SHT31;59082;50.658;4.608;2022-08-19T10:31:23;23.65;83.42
71297;SHT31;59082;50.658;4.608;2022-08-19T10:33:50;23.86;82.46
71297;SHT31;59082;50.658;4.608;2022-08-19T10:36:20;23.85;82.80
71297;SHT31;59082;50.658;4.608;2022-08-19T10:38:51;23.92;83.02
71297;SHT31;59082;50.658;4.608;2022-08-19T10:41:22;24.51;81.70
71297;SHT31;59082;50.658;4.608;2022-08-19T10:43:51;24.31;81.74
71297;SHT31;59082;50.658;4.608;2022-08-19T10:46:17;24.81;80.85
71297;SHT31;59082;50.658;4.608;2022-08-19T10:48:44;24.40;81.75
71297;SHT31;59082;50.658;4.608;2022-08-19T10:51:10;24.55;81.83
71297;SHT31;59082;50.658;4.608;2022-08-19T10:53:55;24.23;82.06
71297;SHT31;59082;50.658;4.608;2022-08-19T10:56:21;23.96;82.41
71297;SHT31;59082;50.658;4.608;2022-08-19T10:59:05;24.24;82.99
71297;SHT31;59082;50.658;4.608;2022-08-19T11:01:31;24.35;81.86
71297;SHT31;59082;50.658;4.608;2022-08-19T11:04:00;23.92;82.51
71297;SHT31;59082;50.658;4.608;2022-08-19T11:06:26;24.20;82.87
71297;SHT31;59082;50.658;4.608;2022-08-19T11:08:54;24.27;81.91
71297;SHT31;59082;50.658;4.608;2022-08-19T11:11:21;24.06;82.17
71297;SHT31;59082;50.658;4.608;2022-08-19T11:13:47;23.62;83.00
71297;SHT31;59082;50.658;4.608;2022-08-19T11:16:15;23.63;83.24
71297;SHT31;59082;50.658;4.608;2022-08-19T11:18:44;23.85;83.14
71297;SHT31;59082;50.658;4.608;2022-08-19T11:21:15;23.97;82.73
71297;SHT31;59082;50.658;4.608;2022-08-19T11:23:43;24.23;81.77
71297;SHT31;59082;50.658;4.608;2022-08-19T11:26:09;24.00;82.80
71297;SHT31;59082;50.658;4.608;2022-08-19T11:28:35;23.89;83.16
71297;SHT31;59082;50.658;4.608;2022-08-19T11:31:01;23.45;84.06
71297;SHT31;59082;50.658;4.608;2022-08-19T11:33:29;23.30;84.86
71297;SHT31;59082;50.658;4.608;2022-08-19T11:35:58;23.20;85.01
71297;SHT31;59082;50.658;4.608;2022-08-19T11:38:24;23.06;85.37
71297;SHT31;59082;50.658;4.608;2022-08-19T11:41:00;22.90;86.05
71297;SHT31;59082;50.658;4.608;2022-08-19T11:43:27;23.07;85.45
71297;SHT31;59082;50.658;4.608;2022-08-19T11:45:54;23.38;84.64
71297;SHT31;59082;50.658;4.608;2022-08-19T11:48:20;23.34;84.06
71297;SHT31;59082;50.658;4.608;2022-08-19T11:50:50;23.82;83.86
71297;SHT31;59082;50.658;4.608;2022-08-19T11:53:19;24.54;81.99
71297;SHT31;59082;50.658;4.608;2022-08-19T11:55:50;24.76;80.51
71297;SHT31;59082;50.658;4.608;2022-08-19T11:58:21;24.75;80.51
71297;SHT31;59082;50.658;4.608;2022-08-19T12:00:47;24.67;81.21
71297;SHT31;59082;50.658;4.608;2022-08-19T12:03:13;25.00;80.16
71297;SHT31;59082;50.658;4.608;2022-08-19T12:05:39;24.95;79.87
71297;SHT31;59082;50.658;4.608;2022-08-19T12:08:06;24.90;79.35
71297;SHT31;59082;50.658;4.608;2022-08-19T12:10:33;25.44;79.45
71297;SHT31;59082;50.658;4.608;2022-08-19T12:12:59;25.37;78.95
71297;SHT31;59082;50.658;4.608;2022-08-19T12:15:24;24.65;79.90
71297;SHT31;59082;50.658;4.608;2022-08-19T12:17:53;24.54;80.54
71297;SHT31;59082;50.658;4.608;2022-08-19T12:20:22;25.06;79.95
71297;SHT31;59082;50.658;4.608;2022-08-19T12:22:47;24.99;80.03
71297;SHT31;59082;50.658;4.608;2022-08-19T12:25:13;25.46;79.47
71297;SHT31;59082;50.658;4.608;2022-08-19T12:27:39;25.88;78.50
71297;SHT31;59082;50.658;4.608;2022-08-19T12:30:08;25.57;77.91
71297;SHT31;59082;50.658;4.608;2022-08-19T12:32:34;25.91;77.32
71297;SHT31;59082;50.658;4.608;2022-08-19T12:35:00;25.51;78.24
71297;SHT31;59082;50.658;4.608;2022-08-19T12:37:26;25.51;77.91
71297;SHT31;59082;50.658;4.608;2022-08-19T12:39:51;25.30;78.63
71297;SHT31;59082;50.658;4.608;2022-08-19T12:42:17;25.48;78.79
71297;SHT31;59082;50.658;4.608;2022-08-19T12:44:43;25.86;77.04
71297;SHT31;59082;50.658;4.608;2022-08-19T12:47:11;25.92;78.23
71297;SHT31;59082;50.658;4.608;2022-08-19T12:49:37;26.56;76.23
71297;SHT31;59082;50.658;4.608;2022-08-19T12:52:05;30.65;68.09
71297;SHT31;59082;50.658;4.608;2022-08-19T12:54:32;35.94;58.40
71297;SHT31;59082;50.658;4.608;2022-08-19T12:56:58;36.91;56.77
71297;SHT31;59082;50.658;4.608;2022-08-19T12:59:24;39.47;51.55
71297;SHT31;59082;50.658;4.608;2022-08-19T13:01:50;31.64;62.77
71297;SHT31;59082;50.658;4.608;2022-08-19T13:04:16;30.33;64.87
71297;SHT31;59082;50.658;4.608;2022-08-19T13:06:42;29.71;66.98
71297;SHT31;59082;50.658;4.608;2022-08-19T13:09:08;35.67;58.30
71297;SHT31;59082;50.658;4.608;2022-08-19T13:11:34;35.23;56.17
71297;SHT31;59082;50.658;4.608;2022-08-19T13:14:01;35.61;56.13
71297;SHT31;59082;50.658;4.608;2022-08-19T13:16:27;33.45;60.65
71297;SHT31;59082;50.658;4.608;2022-08-19T13:18:54;33.90;58.50
71297;SHT31;59082;50.658;4.608;2022-08-19T13:21:23;36.33;54.31
71297;SHT31;59082;50.658;4.608;2022-08-19T13:23:49;33.56;60.45
71297;SHT31;59082;50.658;4.608;2022-08-19T13:26:16;31.61;62.30
71297;SHT31;59082;50.658;4.608;2022-08-19T13:28:42;29.78;65.06
71297;SHT31;59082;50.658;4.608;2022-08-19T13:31:29;32.76;60.83
71297;SHT31;59082;50.658;4.608;2022-08-19T13:34:15;30.33;65.22
71297;SHT31;59082;50.658;4.608;2022-08-19T13:36:41;28.72;68.35
71297;SHT31;59082;50.658;4.608;2022-08-19T13:39:07;29.25;67.12
71297;SHT31;59082;50.658;4.608;2022-08-19T13:41:34;29.04;67.33
71297;SHT31;59082;50.658;4.608;2022-08-19T13:44:00;28.92;67.85
71297;SHT31;59082;50.658;4.608;2022-08-19T13:46:27;27.79;69.97
71297;SHT31;59082;50.658;4.608;2022-08-19T13:48:54;27.35;71.62
71297;SHT31;59082;50.658;4.608;2022-08-19T13:51:20;27.14;71.60
71297;SHT31;59082;50.658;4.608;2022-08-19T13:53:45;26.61;73.02
71297;SHT31;59082;50.658;4.608;2022-08-19T13:56:15;29.34;69.00
71297;SHT31;59082;50.658;4.608;2022-08-19T13:58:41;30.33;65.79
71297;SHT31;59082;50.658;4.608;2022-08-19T14:01:08;28.69;68.46
71297;SHT31;59082;50.658;4.608;2022-08-19T14:03:34;27.91;70.80
71297;SHT31;59082;50.658;4.608;2022-08-19T14:06:00;27.94;70.02
71297;SHT31;59082;50.658;4.608;2022-08-19T14:08:26;27.67;71.24
71297;SHT31;59082;50.658;4.608;2022-08-19T14:10:55;28.58;68.58
71297;SHT31;59082;50.658;4.608;2022-08-19T14:13:23;27.53;70.53
71297;SHT31;59082;50.658;4.608;2022-08-19T14:15:49;30.71;64.90
71297;SHT31;59082;50.658;4.608;2022-08-19T14:18:16;31.46;63.90
71297;SHT31;59082;50.658;4.608;2022-08-19T14:20:42;34.67;58.33
71297;SHT31;59082;50.658;4.608;2022-08-19T14:23:08;35.77;56.51
71297;SHT31;59082;50.658;4.608;2022-08-19T14:25:34;31.70;62.17
71297;SHT31;59082;50.658;4.608;2022-08-19T14:28:00;29.41;66.00
71297;SHT31;59082;50.658;4.608;2022-08-19T14:30:30;28.20;68.51
71297;SHT31;59082;50.658;4.608;2022-08-19T14:32:58;26.65;72.45
71297;SHT31;59082;50.658;4.608;2022-08-19T14:35:25;25.92;74.98
71297;SHT31;59082;50.658;4.608;2022-08-19T14:37:54;25.71;76.10
71297;SHT31;59082;50.658;4.608;2022-08-19T14:40:22;25.19;77.45
71297;SHT31;59082;50.658;4.608;2022-08-19T14:42:52;24.72;78.74
71297;SHT31;59082;50.658;4.608;2022-08-19T14:45:21;24.33;80.15
71297;SHT31;59082;50.658;4.608;2022-08-19T14:47:46;24.07;80.85
71297;SHT31;59082;50.658;4.608;2022-08-19T14:50:12;23.54;83.32
71297;SHT31;59082;50.658;4.608;2022-08-19T14:52:39;23.73;84.24
71297;SHT31;59082;50.658;4.608;2022-08-19T14:55:05;23.92;86.18
71297;SHT31;59082;50.658;4.608;2022-08-19T14:57:31;23.72;86.82
71297;SHT31;59082;50.658;4.608;2022-08-19T14:59:56;24.33;85.26
71297;SHT31;59082;50.658;4.608;2022-08-19T15:02:22;24.30;85.30
71297;SHT31;59082;50.658;4.608;2022-08-19T15:04:48;24.60;84.48
71297;SHT31;59082;50.658;4.608;2022-08-19T15:07:13;24.68;83.36
71297;SHT31;59082;50.658;4.608;2022-08-19T15:09:39;25.10;82.16
71297;SHT31;59082;50.658;4.608;2022-08-19T15:12:05;24.76;84.13
71297;SHT31;59082;50.658;4.608;2022-08-19T15:14:31;24.41;84.04
71297;SHT31;59082;50.658;4.608;2022-08-19T15:16:58;24.55;83.73
71297;SHT31;59082;50.658;4.608;2022-08-19T15:19:24;27.31;77.52
71297;SHT31;59082;50.658;4.608;2022-08-19T15:21:49;33.14;66.75
71297;SHT31;59082;50.658;4.608;2022-08-19T15:24:15;39.25;52.16
71297;SHT31;59082;50.658;4.608;2022-08-19T15:26:41;34.84;58.34
71297;SHT31;59082;50.658;4.608;2022-08-19T15:29:07;35.16;60.16
71297;SHT31;59082;50.658;4.608;2022-08-19T15:31:33;35.95;56.24
71297;SHT31;59082;50.658;4.608;2022-08-19T15:34:01;30.76;64.58
71297;SHT31;59082;50.658;4.608;2022-08-19T15:36:27;35.55;56.63
71297;SHT31;59082;50.658;4.608;2022-08-19T15:38:54;35.94;56.44
71297;SHT31;59082;50.658;4.608;2022-08-19T15:41:24;31.51;63.21
71297;SHT31;59082;50.658;4.608;2022-08-19T15:44:13;29.38;68.33
71297;SHT31;59082;50.658;4.608;2022-08-19T15:46:39;28.72;69.46
71297;SHT31;59082;50.658;4.608;2022-08-19T15:49:06;27.66;72.11